METAR Data
IDs: Format: Raw Decoded Include TAF

Data at: 1831 UTC 21 Sep 2018

KBPG 211810Z AUTO 35016G20KT 10SM SCT018 SCT027 BKN065 25/20 A3002 RMK AO2 LTG DSNT SE T02490199
KBPG 211750Z AUTO 35013G17KT 10SM SCT020 SCT025 BKN047 25/20 A3002 RMK AO2 T02490195 10250 20203
KBPG 211730Z AUTO 34010KT 10SM SCT020 BKN032 OVC046 25/19 A3002 RMK AO2 T02480194
KBPG 211710Z AUTO 34009KT 7SM SCT035 BKN041 BKN047 24/20 A3002 RMK AO2 T02390195
KBPG 211650Z AUTO 34009G12KT 7SM SCT016 SCT024 SCT037 24/20 A3002 RMK AO2 T02390197
KBPG 211630Z AUTO 36011KT 10SM SCT015 BKN029 OVC036 24/19 A3002 RMK AO2 LTG DSNT SE T02360194
KBPG 211610Z AUTO 36013KT 10SM SCT017 BKN024 OVC028 23/20 A3002 RMK AO2 LTG DSNT SE T02270195
KBPG 211550Z AUTO 35012KT 10SM BKN016 OVC022 23/19 A3001 RMK AO2 LTG DSNT SE T02310190
KBPG 211530Z AUTO 33009KT 7SM OVC014 22/19 A3001 RMK AO2 LTG DSNT SE T02230190
KBPG 211510Z AUTO 31007KT 10SM BKN014 BKN019 OVC085 22/19 A2999 RMK AO2 T02200194
KBPG 211450Z AUTO 31004KT 10SM OVC085 22/20 A2998 RMK AO2 LTG DSNT SE T02180196
KBPG 211430Z AUTO 29004KT 10SM OVC085 22/20 A2998 RMK AO2 LTG DSNT SE T02150197
KBPG 211410Z AUTO 28004KT 10SM OVC085 21/20 A2998 RMK AO2 LTG DSNT SE T02100197
KBPG 211350Z AUTO 28005KT 10SM SCT048 BKN075 OVC085 21/20 A2997 RMK AO2 LTG DSNT SE T02060195
KBPG 211330Z AUTO 00000KT 10SM SCT007 BKN011 OVC085 21/20 A2996 RMK AO2 LTG DSNT SE T02050195
KBPG 211310Z AUTO 00000KT 10SM BKN009 OVC013 21/19 A2996 RMK AO2 LTG DSNT SE T02050194
KBPG 211250Z AUTO 00000KT 10SM BKN009 OVC013 20/19 A2996 RMK AO2 LTG DSNT SE T02030192
KBPG 211230Z AUTO 00000KT 10SM OVC009 20/19 A2996 RMK AO2 LTG DSNT SE T02040193
KBPG 211210Z AUTO 00000KT 10SM OVC009 20/19 A2995 RMK AO2 LTG DSNT E AND SE T02030193
KBPG 211150Z AUTO 00000KT 10SM OVC009 20/19 A2995 RMK AO2 70001 T02020192 10230 20196
KBPG 211130Z AUTO 15003KT 10SM OVC009 20/19 A2994 RMK AO2 T02020193
KBPG 211110Z AUTO 13003KT 10SM OVC007 20/19 A2994 RMK AO2 T02000194
KBPG 211050Z AUTO 14005KT 10SM OVC007 20/19 A2994 RMK AO2 LTG DSNT S T01980193
KBPG 211030Z AUTO 16004KT 5SM OVC005 20/19 A2993 RMK AO2 LTG DSNT SE AND S T01960192
KBPG 211010Z AUTO 18004KT 4SM VCTS OVC007 20/19 A2993 RMK AO2 LTG DSNT E T01960191
KBPG 210950Z AUTO 18008KT 5SM OVC009 20/19 A2993 RMK AO2 T01980190
KBPG 210930Z AUTO 19007KT 10SM VCTS BKN011 OVC018 20/19 A2993 RMK AO2 LTG DSNT E AND SE T02000189
KBPG 210910Z AUTO 19007KT 10SM SCT011 BKN018 OVC080 20/19 A2992 RMK AO2 LTG DSNT SE T02010190
KBPG 210850Z AUTO 18008KT 10SM SCT018 BKN100 20/19 A2993 RMK AO2 T02020191
KBPG 210830Z AUTO 17012KT 7SM SCT013 SCT075 OVC100 20/19 A2993 RMK AO2 LTG DSNT S T02040192
KBPG 210810Z AUTO 17015G22KT 10SM BKN013 BKN018 OVC090 21/19 A2993 RMK AO2 LTG DSNT SE AND S T02100191
KBPG 210750Z AUTO 14009KT 10SM SCT021 OVC090 22/21 A2992 RMK AO2 LTG DSNT N SE AND S T02170207
KBPG 210730Z AUTO 15009KT 10SM SCT080 OVC090 22/21 A2993 RMK AO2 LTG DSNT SE AND S T02190206
KBPG 210710Z AUTO 15009KT 7SM SCT050 OVC080 22/21 A2993 RMK AO2 LTG DSNT SE AND S T02200205
KBPG 210650Z AUTO 15011KT 10SM BKN080 BKN120 23/20 A2994 RMK AO2 LTG DSNT SE AND S T02250201
KBPG 210630Z AUTO 15010KT 10SM BKN110 23/20 A2994 RMK AO2 LTG DSNT SE AND S T02260200
KBPG 210610Z AUTO 16010KT 10SM SCT018 OVC110 23/20 A2994 RMK AO2 LTG DSNT SE AND S T02280197
KBPG 210550Z AUTO 15011KT 10SM BKN020 BKN024 OVC090 23/20 A2995 RMK AO2 LTG DSNT SE AND S T02300196 10264 20230 402840200
KBPG 210530Z AUTO 16010KT 10SM BKN022 OVC085 23/20 A2996 RMK AO2 LTG DSNT S AND NW T02310195
KBPG 210510Z AUTO 16013KT 10SM SCT020 BKN085 23/19 A2996 RMK AO2 LTG DSNT S T02330193
KBPG 210450Z AUTO 16011KT 10SM BKN085 23/19 A2996 RMK AO2 T02320192
KBPG 210430Z AUTO 16010KT 10SM BKN085 BKN110 23/19 A2996 RMK AO2 LTG DSNT S AND SW T02320191
KBPG 210410Z AUTO 16010KT 10SM SCT085 BKN110 23/19 A2996 RMK AO2 LTG DSNT S AND SW T02320190
KBPG 210350Z AUTO 15009KT 10SM OVC100 23/19 A2996 RMK AO2 LTG DSNT SW T02330190
KBPG 210330Z AUTO 15009KT 10SM OVC100 24/19 A2996 RMK AO2 LTG DSNT SW T02350190
KBPG 210310Z AUTO 15011KT 10SM OVC100 24/19 A2995 RMK AO2 T02360190
KBPG 210255Z AUTO 15011KT 7SM OVC090 24/19 A2995 RMK AO2 T02380190
KBPG 210230Z AUTO 16010KT 10SM OVC090 24/19 A2994 RMK AO2 LTG DSNT SW T02400190
KBPG 210210Z AUTO 16010KT 10SM BKN090 24/19 A2993 RMK AO2 T02440187
KBPG 210150Z AUTO 16010KT 10SM SCT090 25/19 A2992 RMK AO2 T02450187
KBPG 210130Z AUTO 16011KT 10SM CLR 25/19 A2991 RMK AO2 T02460187
KBPG 210110Z AUTO 16009KT 10SM CLR 25/19 A2991 RMK AO2 T02480185
KBPG 210050Z AUTO 16010KT 10SM CLR 25/18 A2990 RMK AO2 T02500184
KBPG 210030Z AUTO 16011KT 10SM CLR 25/18 A2990 RMK AO2 T02530182
KBPG 210010Z AUTO 16011KT 10SM SCT038 26/18 A2990 RMK AO2 T02600181
KBPG 202350Z AUTO 17017KT 10SM SCT038 SCT044 27/18 A2989 RMK AO2 60001 T02670182 10284 20232
KBPG 202330Z AUTO 17013KT 10SM CLR 27/18 A2989 RMK AO2 T02680182
KBPG 202310Z AUTO 17015G20KT 10SM SCT041 SCT047 SCT055 28/18 A2988 RMK AO2 T02750184
KBPG 202250Z AUTO 17012KT 10SM SCT046 SCT065 SCT080 27/18 A2988 RMK AO2 T02730176
KBPG 202230Z AUTO 19015KT 10SM SCT048 SCT065 BKN120 28/17 A2988 RMK AO2 T02770169
KBPG 202210Z AUTO 18010KT 10SM SCT047 SCT095 28/17 A2988 RMK AO2 T02790168
KBPG 202150Z AUTO 17013G16KT 10SM SCT045 SCT050 BKN100 28/18 A2988 RMK AO2 T02770176
KBPG 202130Z AUTO 18013KT 10SM BKN045 BKN060 BKN100 28/18 A2989 RMK AO2 T02750179
KBPG 202110Z AUTO 18012G18KT 7SM SCT045 SCT055 SCT100 27/18 A2989 RMK AO2 T02730179
KBPG 202050Z AUTO 19015G21KT 10SM SCT043 SCT090 27/18 A2990 RMK AO2 60001 T02740177
KBPG 202030Z AUTO 18015G22KT 10SM SCT095 28/18 A2990 RMK AO2 T02780183
KBPG 202010Z AUTO 17018G23KT 10SM SCT042 SCT048 SCT060 28/18 A2991 RMK AO2 T02770184
KBPG 201950Z AUTO 16019G25KT 10SM BKN042 BKN050 BKN060 26/19 A2992 RMK AO2 P0001 T02630192
KBPG 201930Z AUTO 15018G24KT 7SM SCT036 BKN042 OVC050 24/19 A2994 RMK AO2 P0001 T02410190
KBPG 201910Z AUTO 13012G21KT 4SM SCT040 BKN050 BKN070 26/20 A2994 RMK AO2 P0001 T02560198
KBPG 201850Z AUTO 16018G23KT 10SM SCT042 SCT050 BKN070 27/18 A2995 RMK AO2 T02730176
KBPG 201830Z AUTO 16018G23KT 10SM SCT042 BKN060 OVC080 27/18 A2996 RMK AO2 T02730179
KBPG 201810Z AUTO 18016KT 10SM SCT039 SCT046 BKN075 27/18 A2997 RMK AO2 T02730175
KBPG 201750Z AUTO 16015G22KT 10SM SCT041 SCT055 28/18 A2998 RMK AO2 T02760176 10277 20202
KBPG 201730Z AUTO 17015KT 10SM SCT039 SCT055 28/18 A2998 RMK AO2 T02770176
KBPG 201710Z AUTO 17017KT 10SM SCT038 SCT048 SCT060 27/18 A2999 RMK AO2 T02660178
KBPG 201650Z AUTO 16016G23KT 10SM SCT038 SCT044 27/18 A3000 RMK AO2 T02700182
KBPG 201630Z AUTO 17020G25KT 10SM CLR 26/18 A3000 RMK AO2 T02610179
KBPG 201610Z AUTO 16018G23KT 10SM SCT028 26/18 A3000 RMK AO2 T02590184
KBPG 201550Z AUTO 18021G25KT 10SM SCT024 SCT029 25/19 A3000 RMK AO2 T02500185
KBPG 201530Z AUTO 17019G22KT 10SM BKN023 BKN029 25/19 A3000 RMK AO2 T02500191
KBPG 201510Z AUTO 16018G25KT 10SM SCT020 24/19 A3000 RMK AO2 T02400192
KBPG 201450Z AUTO 16017G22KT 10SM SCT016 SCT021 24/19 A2999 RMK AO2 T02350193
KBPG 201430Z AUTO 16018G25KT 10SM CLR 23/19 A2999 RMK AO2 T02310192
KBPG 201410Z AUTO 17017KT 7SM CLR 23/19 A2999 RMK AO2 T02260191
KBPG 201350Z AUTO 16016G21KT 10SM CLR 22/19 A2998 RMK AO2 T02200190
KBPG 201330Z AUTO 16015KT 7SM CLR 22/19 A2998 RMK AO2 T02150190
KBPG 201310Z AUTO 16014KT 7SM CLR 21/19 A2998 RMK AO2 T02070187
KBPG 201250Z AUTO 16014KT 7SM CLR 20/19 A2998 RMK AO2 T02040187
KBPG 201230Z AUTO 16015G19KT 10SM SCT011 20/19 A2997 RMK AO2 T02030188
KBPG 201210Z AUTO 17012KT 10SM CLR 20/19 A2996 RMK AO2 T02020187
KBPG 201150Z AUTO 17010KT 10SM CLR 20/19 A2997 RMK AO2 T02030187 10220 20200
KBPG 201130Z AUTO 16010KT 10SM SCT013 20/19 A2997 RMK AO2 T02030186
KBPG 201110Z AUTO 16010KT 10SM SCT013 20/19 A2997 RMK AO2 T02000185
KBPG 201050Z AUTO 16012KT 10SM SCT016 20/19 A2997 RMK AO2 T02030185
KBPG 201030Z AUTO 17011G15KT 10SM SCT016 20/18 A2997 RMK AO2 T02040184
KBPG 201010Z AUTO 16009KT 10SM CLR 21/19 A2997 RMK AO2 T02050185
KBPG 200950Z AUTO 15009KT 10SM CLR 20/18 A2997 RMK AO2 T02030183
KBPG 200930Z AUTO 15009KT 10SM CLR 20/18 A2997 RMK AO2 T02030182
KBPG 200910Z AUTO 16009KT 10SM CLR 21/18 A2997 RMK AO2 T02050182
KBPG 200850Z AUTO 15010KT 10SM CLR 21/18 A2997 RMK AO2 T02090182
KBPG 200830Z AUTO 15010KT 10SM CLR 21/18 A2998 RMK AO2 T02110182
KBPG 200810Z AUTO 14009KT 10SM CLR 21/18 A2997 RMK AO2 T02130182
KBPG 200750Z AUTO 14011KT 10SM CLR 22/18 A2998 RMK AO2 T02150182
KBPG 200730Z AUTO 15010KT 10SM CLR 22/18 A2998 RMK AO2 T02160181
KBPG 200710Z AUTO 14009KT 10SM CLR 22/18 A2998 RMK AO2 T02170181
KBPG 200650Z AUTO 14009KT 10SM CLR 22/18 A2998 RMK AO2 T02180182